Time;durP1;ratioP1;P1;durP2;ratioP2;P2;SDS_P1;SDS_P2;PMS_P1;PMS_P2;Temp;Humidity;BMP_temperature;BMP_pressure;BME280_temperature;BME280_humidity;BME280_pressure;Samples;Min_cycle;Max_cycle;Signal;HPM_P1;HPM_P2
2022/10/23 05:25:40;;;;;;;;;;;22.00;99.90;;;;;;6130049;23;21081;-81
2022/10/23 05:28:08;;;;;;;;;;;22.00;99.90;;;;;;5015495;28;20015;-82
2022/10/23 05:30:35;;;;;;;;;;;22.00;99.90;;;;;;5016376;28;20367;-82
2022/10/23 05:33:02;;;;;;;;;;;22.00;99.90;;;;;;5016563;28;19925;-82
2022/10/23 05:35:29;;;;;;;;;;;22.00;99.90;;;;;;5014131;28;20012;-82
2022/10/23 05:37:57;;;;;;;;;;;22.00;99.90;;;;;;4997638;28;19946;-82
2022/10/23 05:40:24;;;;;;;;;;;22.10;99.90;;;;;;4997994;28;19973;-81
2022/10/23 05:42:51;;;;;;;;;;;22.10;99.90;;;;;;4996878;28;20016;-81
2022/10/23 05:45:19;;;;;;;;;;;22.00;99.90;;;;;;4997150;28;20001;-81
2022/10/23 05:47:46;;;;;;;;;;;22.10;99.90;;;;;;4996118;28;19980;-81
2022/10/23 05:50:13;;;;;;;;;;;22.00;99.90;;;;;;4996492;28;20045;-81
2022/10/23 05:52:39;;;;;;;;;;;22.00;99.90;;;;;;4996392;28;20333;-81
2022/10/23 05:55:06;;;;;;;;;;;22.00;99.90;;;;;;4996900;28;20004;-81
2022/10/23 05:57:33;;;;;;;;;;;22.00;99.90;;;;;;4996184;28;20015;-81
2022/10/23 06:00:01;;;;;;;;;;;22.10;99.90;;;;;;4996047;28;20016;-81
2022/10/23 06:02:29;;;;;;;;;;;22.00;99.90;;;;;;4996032;28;20297;-81
2022/10/23 06:04:55;;;;;;;;;;;22.10;99.90;;;;;;4995662;28;19934;-81
2022/10/23 06:07:25;;;;;;;;;;;22.00;99.90;;;;;;4995797;28;20461;-81
2022/10/23 06:09:53;;;;;;;;;;;22.00;99.90;;;;;;4996233;28;20021;-81
2022/10/23 06:12:19;;;;;;;;;;;22.00;99.90;;;;;;4996120;28;19949;-80
2022/10/23 06:14:46;;;;;;;;;;;22.00;99.90;;;;;;4997447;28;19980;-80
2022/10/23 06:17:13;;;;;;;;;;;22.00;99.90;;;;;;4996603;28;19976;-81
2022/10/23 06:19:41;;;;;;;;;;;22.00;99.90;;;;;;4995169;28;20401;-81
2022/10/23 06:22:08;;;;;;;;;;;22.00;99.90;;;;;;4995507;28;20020;-81
2022/10/23 06:24:34;;;;;;;;;;;22.00;99.90;;;;;;4995475;28;20016;-81
2022/10/23 06:27:01;;;;;;;;;;;22.00;99.90;;;;;;4994632;28;20421;-81
2022/10/23 06:29:28;;;;;;;;;;;22.00;99.90;;;;;;4995640;28;19996;-80
2022/10/23 06:31:54;;;;;;;;;;;22.00;99.90;;;;;;4995733;28;19969;-80
2022/10/23 06:34:21;;;;;;;;;;;22.00;99.90;;;;;;4996191;28;19989;-80
2022/10/23 06:36:49;;;;;;;;;;;22.00;99.90;;;;;;4995854;28;20017;-80
2022/10/23 06:39:16;;;;;;;;;;;22.00;99.90;;;;;;4995629;28;20013;-80
2022/10/23 06:41:44;;;;;;;;;;;22.00;99.90;;;;;;4994974;28;19965;-80
2022/10/23 06:44:10;;;;;;;;;;;22.00;99.90;;;;;;4994971;28;19930;-80
2022/10/23 06:46:37;;;;;;;;;;;22.00;99.90;;;;;;4996057;28;20016;-79
2022/10/23 06:49:04;;;;;;;;;;;22.00;99.90;;;;;;4995835;28;19995;-79
2022/10/23 06:51:30;;;;;;;;;;;22.00;99.90;;;;;;4997044;28;20397;-78
2022/10/23 06:53:59;;;;;;;;;;;22.00;99.90;;;;;;4995539;28;20444;-79
2022/10/23 06:56:28;;;;;;;;;;;22.00;99.90;;;;;;4994445;28;19932;-78
2022/10/23 06:58:54;;;;;;;;;;;22.00;99.90;;;;;;4997390;28;20444;-80
2022/10/23 07:01:21;;;;;;;;;;;22.00;99.90;;;;;;4999025;28;20346;-80
2022/10/23 07:03:48;;;;;;;;;;;22.00;99.90;;;;;;4999263;28;20017;-79
2022/10/23 07:06:15;;;;;;;;;;;22.00;99.90;;;;;;4999619;28;20369;-80
2022/10/23 07:08:41;;;;;;;;;;;22.00;99.90;;;;;;4999781;28;20021;-80
2022/10/23 07:11:10;;;;;;;;;;;21.90;99.90;;;;;;4998785;28;20462;-81
2022/10/23 07:13:38;;;;;;;;;;;21.90;99.90;;;;;;4998260;28;20017;-80
2022/10/23 07:16:12;;;;;;;;;;;21.90;99.90;;;;;;5001322;28;20297;-81
2022/10/23 07:18:39;;;;;;;;;;;21.90;99.90;;;;;;5002891;28;19965;-79
2022/10/23 07:21:05;;;;;;;;;;;21.90;99.90;;;;;;5002440;28;19949;-78
2022/10/23 07:23:32;;;;;;;;;;;21.90;99.90;;;;;;5002169;28;19968;-81
2022/10/23 07:26:02;;;;;;;;;;;21.90;99.90;;;;;;5001925;28;19989;-82
2022/10/23 07:28:30;;;;;;;;;;;21.80;99.90;;;;;;5003301;28;19926;-82
2022/10/23 07:30:57;;;;;;;;;;;21.80;99.90;;;;;;5002585;28;20021;-82
2022/10/23 07:33:24;;;;;;;;;;;21.90;99.90;;;;;;5001674;28;20020;-82
2022/10/23 07:35:50;;;;;;;;;;;21.80;99.90;;;;;;5001887;28;20364;-81
2022/10/23 07:38:17;;;;;;;;;;;21.90;99.90;;;;;;5002698;28;19973;-81
2022/10/23 07:40:44;;;;;;;;;;;21.90;99.90;;;;;;5004611;28;20344;-81
2022/10/23 07:43:11;;;;;;;;;;;21.90;99.90;;;;;;5001927;28;20016;-79
2022/10/23 07:45:39;;;;;;;;;;;21.90;99.90;;;;;;5000956;28;19926;-82
2022/10/23 07:48:06;;;;;;;;;;;21.90;99.90;;;;;;5002030;28;20337;-81
2022/10/23 07:50:32;;;;;;;;;;;21.90;99.90;;;;;;5001927;28;19926;-79
2022/10/23 07:52:59;;;;;;;;;;;21.90;99.90;;;;;;5001298;28;19926;-80
2022/10/23 07:55:26;;;;;;;;;;;21.90;99.90;;;;;;5001429;28;19980;-79
2022/10/23 07:57:53;;;;;;;;;;;21.90;99.90;;;;;;5001147;28;19980;-82
2022/10/23 08:00:19;;;;;;;;;;;21.90;99.90;;;;;;5001004;28;20397;-82
2022/10/23 08:02:47;;;;;;;;;;;21.90;99.90;;;;;;5001513;28;20029;-80
2022/10/23 08:05:14;;;;;;;;;;;21.90;99.90;;;;;;4997778;28;19957;-88
2022/10/23 08:07:41;;;;;;;;;;;21.90;99.90;;;;;;5001252;28;19925;-84
2022/10/23 08:10:08;;;;;;;;;;;21.90;99.90;;;;;;4999831;28;19965;-82
2022/10/23 08:12:35;;;;;;;;;;;21.90;99.90;;;;;;4999910;28;19930;-80
2022/10/23 08:15:01;;;;;;;;;;;21.90;99.90;;;;;;5000632;28;20385;-82
2022/10/23 08:17:28;;;;;;;;;;;22.00;99.90;;;;;;5002771;28;19961;-83
2022/10/23 08:19:56;;;;;;;;;;;22.00;99.90;;;;;;5002214;28;19971;-84
2022/10/23 08:22:23;;;;;;;;;;;21.90;99.90;;;;;;5002243;28;19972;-84
2022/10/23 08:24:49;;;;;;;;;;;21.90;99.90;;;;;;5000012;28;19976;-82
2022/10/23 08:27:16;;;;;;;;;;;21.90;99.90;;;;;;5004791;28;19926;-82
2022/10/23 08:29:43;;;;;;;;;;;21.90;99.90;;;;;;5005696;28;19964;-81
2022/10/23 08:32:09;;;;;;;;;;;21.80;99.90;;;;;;5004232;28;19972;-82
2022/10/23 08:34:36;;;;;;;;;;;21.90;99.90;;;;;;5004429;28;19948;-82
2022/10/23 08:37:04;;;;;;;;;;;21.90;99.90;;;;;;5003033;28;19929;-82
2022/10/23 08:39:31;;;;;;;;;;;21.80;99.90;;;;;;5003226;28;19957;-83
2022/10/23 08:41:58;;;;;;;;;;;21.80;99.90;;;;;;5003427;28;20354;-82
2022/10/23 08:44:28;;;;;;;;;;;21.80;99.90;;;;;;5005231;28;19970;-82
2022/10/23 08:47:00;;;;;;;;;;;21.70;99.90;;;;;;5002881;28;19925;-81
2022/10/23 08:49:33;;;;;;;;;;;21.80;99.90;;;;;;5003979;28;19969;-82
2022/10/23 08:52:02;;;;;;;;;;;21.70;99.90;;;;;;5004394;28;19961;-82
2022/10/23 08:54:34;;;;;;;;;;;21.70;99.90;;;;;;5004089;28;20004;-82
2022/10/23 08:57:03;;;;;;;;;;;21.70;99.90;;;;;;5005117;28;19965;-82
2022/10/23 08:59:32;;;;;;;;;;;21.70;99.90;;;;;;5004602;28;19976;-82
2022/10/23 09:02:01;;;;;;;;;;;21.70;99.90;;;;;;5004426;28;19972;-82
2022/10/23 09:04:28;;;;;;;;;;;21.70;99.90;;;;;;5004182;28;19925;-82
2022/10/23 09:06:57;;;;;;;;;;;21.70;99.90;;;;;;5005839;28;19926;-81
2022/10/23 09:09:42;;;;;;;;;;;21.70;99.90;;;;;;5006406;28;19960;-82
2022/10/23 09:12:11;;;;;;;;;;;21.70;99.90;;;;;;5005194;28;19961;-82
2022/10/23 09:14:48;;;;;;;;;;;21.60;99.90;;;;;;5007839;28;19975;-81
2022/10/23 09:17:18;;;;;;;;;;;21.70;99.90;;;;;;5006654;28;19964;-81
2022/10/23 09:19:46;;;;;;;;;;;21.70;99.90;;;;;;5007181;28;19926;-81
2022/10/23 09:22:13;;;;;;;;;;;21.60;99.90;;;;;;5005446;28;20289;-81
2022/10/23 09:24:43;;;;;;;;;;;21.60;99.90;;;;;;5007018;28;19926;-81
2022/10/23 09:27:14;;;;;;;;;;;21.60;99.90;;;;;;5006149;28;20353;-81
2022/10/23 09:29:46;;;;;;;;;;;21.60;99.90;;;;;;5007605;28;19926;-81
2022/10/23 09:32:13;;;;;;;;;;;21.60;99.90;;;;;;5008105;28;19953;-81
2022/10/23 09:34:49;;;;;;;;;;;21.60;99.90;;;;;;5008650;28;19933;-81
2022/10/23 09:37:21;;;;;;;;;;;21.60;99.90;;;;;;5004621;28;19976;-79
2022/10/23 09:39:49;;;;;;;;;;;21.60;99.90;;;;;;4998128;28;20016;-78
2022/10/23 09:42:21;;;;;;;;;;;21.60;99.90;;;;;;4996286;28;19996;-76
2022/10/23 09:44:49;;;;;;;;;;;21.60;99.90;;;;;;4997137;28;20352;-80
2022/10/23 09:47:19;;;;;;;;;;;21.60;99.90;;;;;;4998332;28;20036;-79
2022/10/23 09:49:47;;;;;;;;;;;21.60;99.90;;;;;;4997289;28;19929;-79
2022/10/23 09:52:22;;;;;;;;;;;21.60;99.90;;;;;;4997577;28;20016;-79
2022/10/23 09:54:52;;;;;;;;;;;21.60;99.90;;;;;;4998399;28;20028;-79
2022/10/23 09:57:22;;;;;;;;;;;21.60;99.90;;;;;;4998501;28;19987;-79
2022/10/23 09:59:50;;;;;;;;;;;21.60;99.90;;;;;;4997317;28;19976;-79
2022/10/23 10:02:20;;;;;;;;;;;21.70;99.90;;;;;;4996859;28;19981;-79
2022/10/23 10:04:47;;;;;;;;;;;21.70;99.90;;;;;;4997541;28;20021;-79
2022/10/23 10:07:17;;;;;;;;;;;21.70;99.90;;;;;;4997717;28;19965;-78
2022/10/23 10:09:44;;;;;;;;;;;21.80;99.90;;;;;;4996429;28;20016;-78
2022/10/23 10:12:19;;;;;;;;;;;21.70;99.90;;;;;;4997639;28;20017;-81
2022/10/23 10:14:51;;;;;;;;;;;21.80;99.90;;;;;;4997846;28;20453;-79
2022/10/23 10:17:20;;;;;;;;;;;21.80;99.90;;;;;;4997195;28;20029;-77
2022/10/23 10:19:57;;;;;;;;;;;21.80;99.90;;;;;;4994823;28;20020;-77
2022/10/23 10:22:27;;;;;;;;;;;21.80;99.90;;;;;;4994641;28;20292;-77
2022/10/23 10:24:57;;;;;;;;;;;21.80;99.90;;;;;;4994750;28;19977;-76
2022/10/23 10:27:33;;;;;;;;;;;21.90;99.90;;;;;;4994120;28;20005;-77
2022/10/23 10:30:03;;;;;;;;;;;21.80;99.90;;;;;;4994717;28;20012;-77
2022/10/23 10:32:35;;;;;;;;;;;21.90;99.90;;;;;;4994793;28;19926;-77
2022/10/23 10:35:19;;;;;;;;;;;21.90;99.90;;;;;;4994333;28;20017;-76
2022/10/23 10:37:54;;;;;;;;;;;21.90;99.90;;;;;;4994173;28;19987;-76
2022/10/23 10:40:26;;;;;;;;;;;21.90;99.90;;;;;;4994496;28;20017;-76
2022/10/23 10:43:10;;;;;;;;;;;22.00;99.90;;;;;;4994500;28;20020;-76
2022/10/23 10:45:38;;;;;;;;;;;22.00;99.90;;;;;;4994176;28;20443;-77
2022/10/23 10:48:12;;;;;;;;;;;22.00;99.90;;;;;;4994074;28;19932;-76
2022/10/23 10:50:43;;;;;;;;;;;22.00;99.90;;;;;;4994137;28;20020;-76
2022/10/23 10:53:13;;;;;;;;;;;22.00;99.90;;;;;;4994362;28;20334;-76
2022/10/23 10:55:42;;;;;;;;;;;22.00;99.90;;;;;;4994637;28;20004;-76
2022/10/23 10:58:13;;;;;;;;;;;22.00;99.90;;;;;;4994410;28;19925;-76
2022/10/23 11:00:40;;;;;;;;;;;22.10;99.90;;;;;;4993895;28;19932;-76
2022/10/23 11:03:12;;;;;;;;;;;22.10;99.90;;;;;;4994059;28;20025;-76
2022/10/23 11:05:42;;;;;;;;;;;22.10;99.90;;;;;;4993795;28;19950;-76
2022/10/23 11:08:12;;;;;;;;;;;22.20;99.90;;;;;;4994700;28;20021;-76
2022/10/23 11:10:42;;;;;;;;;;;22.20;99.90;;;;;;4993891;28;20401;-76
2022/10/23 11:13:18;;;;;;;;;;;22.20;99.90;;;;;;4994209;28;20042;-76
2022/10/23 11:15:45;;;;;;;;;;;22.20;99.90;;;;;;4993824;28;19976;-77
2022/10/23 11:18:13;;;;;;;;;;;22.20;99.90;;;;;;4994348;28;20352;-76
2022/10/23 11:20:53;;;;;;;;;;;22.20;99.90;;;;;;4994250;28;20024;-76
2022/10/23 11:23:29;;;;;;;;;;;22.20;99.90;;;;;;4993920;28;20040;-76
2022/10/23 11:26:12;;;;;;;;;;;22.20;99.90;;;;;;4994320;28;20166;-76
2022/10/23 11:28:49;;;;;;;;;;;22.20;99.90;;;;;;4993869;28;20009;-76
2022/10/23 11:31:19;;;;;;;;;;;22.30;99.90;;;;;;4994225;28;20029;-76
2022/10/23 11:33:55;;;;;;;;;;;22.30;99.90;;;;;;4994152;28;20041;-76
2022/10/23 11:36:37;;;;;;;;;;;22.30;99.90;;;;;;4993833;28;20464;-76
2022/10/23 11:39:12;;;;;;;;;;;22.30;99.90;;;;;;4993797;28;20409;-76
2022/10/23 11:41:47;;;;;;;;;;;22.30;99.90;;;;;;4994203;28;20029;-77
2022/10/23 11:44:24;;;;;;;;;;;22.30;99.90;;;;;;4994496;28;20024;-76
2022/10/23 11:46:59;;;;;;;;;;;22.30;99.90;;;;;;4997095;28;20013;-78
2022/10/23 11:49:26;;;;;;;;;;;22.30;99.90;;;;;;5000974;28;19933;-79
2022/10/23 11:51:59;;;;;;;;;;;22.30;99.90;;;;;;5002266;28;20369;-79
2022/10/23 11:54:26;;;;;;;;;;;22.30;99.90;;;;;;5001091;28;19969;-79
2022/10/23 11:56:55;;;;;;;;;;;22.30;99.90;;;;;;5003164;28;19997;-84
2022/10/23 11:59:26;;;;;;;;;;;22.30;99.90;;;;;;5000873;28;20009;-82
2022/10/23 12:01:53;;;;;;;;;;;22.30;99.90;;;;;;5006709;28;19925;-84
2022/10/23 12:04:24;;;;;;;;;;;22.30;99.90;;;;;;4998818;28;20341;-82
2022/10/23 12:06:56;;;;;;;;;;;22.30;99.90;;;;;;5002298;28;20016;-81
2022/10/23 12:09:25;;;;;;;;;;;22.20;99.90;;;;;;4999437;28;19968;-81
2022/10/23 12:12:02;;;;;;;;;;;22.20;99.90;;;;;;5003321;28;19929;-81
2022/10/23 12:14:31;;;;;;;;;;;22.20;99.90;;;;;;5000446;28;20390;-81
2022/10/23 12:16:58;;;;;;;;;;;22.20;99.90;;;;;;4999755;28;19955;-84
2022/10/23 12:19:26;;;;;;;;;;;22.20;99.90;;;;;;4998072;28;20354;-85
2022/10/23 12:21:54;;;;;;;;;;;22.20;99.90;;;;;;4998223;28;19969;-85
2022/10/23 12:24:42;;;;;;;;;;;22.20;99.90;;;;;;4999613;28;19973;-85
2022/10/23 12:27:14;;;;;;;;;;;22.20;99.90;;;;;;4997836;28;20337;-85
2022/10/23 12:29:51;;;;;;;;;;;22.20;99.90;;;;;;4997783;28;20298;-84
2022/10/23 12:32:27;;;;;;;;;;;22.20;99.90;;;;;;4999309;28;19964;-84
2022/10/23 12:35:07;;;;;;;;;;;22.20;99.90;;;;;;5003606;28;20005;-82
2022/10/23 12:37:43;;;;;;;;;;;22.20;99.90;;;;;;5006644;28;19961;-82
2022/10/23 12:40:10;;;;;;;;;;;22.20;99.90;;;;;;5003811;28;19968;-84
2022/10/23 12:42:37;;;;;;;;;;;22.20;99.90;;;;;;4997232;28;20405;-84
2022/10/23 12:45:15;;;;;;;;;;;22.20;99.90;;;;;;5000135;28;19979;-84
2022/10/23 12:47:42;;;;;;;;;;;22.20;99.90;;;;;;5001327;28;19933;-84
2022/10/23 12:50:16;;;;;;;;;;;22.20;99.90;;;;;;5001385;28;19965;-83
2022/10/23 12:52:50;;;;;;;;;;;22.20;99.90;;;;;;5000865;28;20332;-83
2022/10/23 12:55:20;;;;;;;;;;;22.10;99.90;;;;;;5000754;28;19930;-83
2022/10/23 12:57:47;;;;;;;;;;;22.10;99.90;;;;;;4999975;28;20034;-83
2022/10/23 13:00:17;;;;;;;;;;;22.20;99.90;;;;;;5001169;28;19925;-83
2022/10/23 13:02:43;;;;;;;;;;;22.20;99.90;;;;;;5003750;28;19926;-84
2022/10/23 13:05:14;;;;;;;;;;;22.10;99.90;;;;;;5007023;28;19976;-83
2022/10/23 13:07:46;;;;;;;;;;;22.10;99.90;;;;;;5005719;28;20381;-83
2022/10/23 13:10:13;;;;;;;;;;;22.10;99.90;;;;;;4999639;28;20053;-82
2022/10/23 13:12:41;;;;;;;;;;;22.10;99.90;;;;;;4998428;28;20008;-80
2022/10/23 13:15:18;;;;;;;;;;;22.10;99.90;;;;;;5000560;28;19937;-80
2022/10/23 13:17:45;;;;;;;;;;;22.10;99.90;;;;;;4999837;28;19977;-80
2022/10/23 13:20:23;;;;;;;;;;;22.10;99.90;;;;;;4999771;28;19977;-80
2022/10/23 13:22:52;;;;;;;;;;;22.10;99.90;;;;;;5000328;28;20021;-80
2022/10/23 13:25:20;;;;;;;;;;;22.10;99.90;;;;;;4999564;28;19993;-80
2022/10/23 13:27:47;;;;;;;;;;;22.10;99.90;;;;;;4999239;28;19973;-79
2022/10/23 13:30:29;;;;;;;;;;;22.10;99.90;;;;;;5000214;28;19957;-79
2022/10/23 13:32:55;;;;;;;;;;;22.10;99.90;;;;;;4999577;28;20060;-79
2022/10/23 13:35:23;;;;;;;;;;;22.10;99.90;;;;;;4999880;28;20012;-79
2022/10/23 13:37:50;;;;;;;;;;;22.10;99.90;;;;;;4999496;28;20037;-79
2022/10/23 13:40:22;;;;;;;;;;;22.10;99.90;;;;;;4999803;28;19926;-79
2022/10/23 13:42:49;;;;;;;;;;;22.10;99.90;;;;;;4999647;28;19925;-80
2022/10/23 13:45:18;;;;;;;;;;;22.10;99.90;;;;;;4999773;28;19932;-80
2022/10/23 13:47:46;;;;;;;;;;;22.10;99.90;;;;;;4999990;28;20344;-80
2022/10/23 13:50:13;;;;;;;;;;;22.10;99.90;;;;;;5001729;28;19958;-80
2022/10/23 13:52:40;;;;;;;;;;;22.10;99.90;;;;;;5005240;28;19925;-80
2022/10/23 13:55:10;;;;;;;;;;;22.10;99.90;;;;;;5006612;28;19933;-80
2022/10/23 13:57:37;;;;;;;;;;;22.10;99.90;;;;;;5001752;28;20362;-80
2022/10/23 14:00:04;;;;;;;;;;;22.10;99.90;;;;;;5000421;28;19973;-80
2022/10/23 14:02:31;;;;;;;;;;;22.10;99.90;;;;;;5000378;28;19926;-80
2022/10/23 14:04:59;;;;;;;;;;;22.10;99.90;;;;;;5001047;28;19961;-80
2022/10/23 14:07:25;;;;;;;;;;;22.10;99.90;;;;;;5000830;28;19965;-80
2022/10/23 14:09:52;;;;;;;;;;;22.00;99.90;;;;;;5000633;28;19957;-80
2022/10/23 14:12:19;;;;;;;;;;;22.00;99.90;;;;;;5001319;28;19973;-80
2022/10/23 14:14:49;;;;;;;;;;;22.00;99.90;;;;;;5000822;28;19965;-80
2022/10/23 14:17:16;;;;;;;;;;;22.00;99.90;;;;;;5000806;28;20359;-80
2022/10/23 14:19:44;;;;;;;;;;;22.00;99.90;;;;;;5000576;28;19965;-80
2022/10/23 14:22:12;;;;;;;;;;;22.00;99.90;;;;;;5000732;28;19932;-80
2022/10/23 14:24:39;;;;;;;;;;;22.00;99.90;;;;;;5000711;28;20025;-80
2022/10/23 14:27:05;;;;;;;;;;;22.00;99.90;;;;;;5000271;28;20440;-80
2022/10/23 14:29:32;;;;;;;;;;;22.00;99.90;;;;;;5000694;28;19973;-80
2022/10/23 14:31:59;;;;;;;;;;;22.00;99.90;;;;;;5000698;28;19976;-80
2022/10/23 14:34:25;;;;;;;;;;;22.00;99.90;;;;;;5000688;28;19965;-81
2022/10/23 14:36:52;;;;;;;;;;;22.00;99.90;;;;;;5000951;28;20345;-81
2022/10/23 14:39:20;;;;;;;;;;;22.00;99.90;;;;;;5000319;28;20016;-81
2022/10/23 14:41:47;;;;;;;;;;;22.00;99.90;;;;;;4999949;28;19961;-81
2022/10/23 14:44:13;;;;;;;;;;;22.00;99.90;;;;;;5000244;28;20029;-81
2022/10/23 14:46:40;;;;;;;;;;;22.00;99.90;;;;;;5000085;28;19933;-81
2022/10/23 14:49:07;;;;;;;;;;;22.00;99.90;;;;;;4998152;28;19972;-80
2022/10/23 14:51:34;;;;;;;;;;;22.00;99.90;;;;;;5001279;28;20388;-80
2022/10/23 14:54:01;;;;;;;;;;;21.90;99.90;;;;;;4999076;28;20428;-80
2022/10/23 14:56:30;;;;;;;;;;;22.00;99.90;;;;;;4998909;28;19925;-80
2022/10/23 14:59:01;;;;;;;;;;;22.00;99.90;;;;;;4999155;28;19976;-80
2022/10/23 15:01:28;;;;;;;;;;;22.00;99.90;;;;;;4998662;28;19926;-80
2022/10/23 15:03:55;;;;;;;;;;;22.00;99.90;;;;;;4999883;28;19953;-81
2022/10/23 15:06:22;;;;;;;;;;;22.00;99.90;;;;;;4996689;28;19926;-77
2022/10/23 15:08:49;;;;;;;;;;;22.00;99.90;;;;;;4997326;28;20464;-80
2022/10/23 15:11:16;;;;;;;;;;;22.00;99.90;;;;;;4997847;28;20297;-80
2022/10/23 15:13:44;;;;;;;;;;;22.00;99.90;;;;;;4998652;28;20024;-78
2022/10/23 15:16:11;;;;;;;;;;;22.00;99.90;;;;;;4996874;28;20017;-78
2022/10/23 15:18:38;;;;;;;;;;;22.00;99.90;;;;;;4996429;28;19976;-78
2022/10/23 15:21:05;;;;;;;;;;;22.00;99.90;;;;;;4997656;28;20348;-78
2022/10/23 15:23:33;;;;;;;;;;;22.00;99.90;;;;;;4998570;28;19926;-78
2022/10/23 15:26:00;;;;;;;;;;;22.00;99.90;;;;;;4998038;28;20389;-77
2022/10/23 15:28:28;;;;;;;;;;;22.10;99.90;;;;;;4998684;28;20005;-77
2022/10/23 15:30:56;;;;;;;;;;;22.10;99.90;;;;;;4998438;28;20020;-77
2022/10/23 15:33:23;;;;;;;;;;;22.10;99.90;;;;;;4998641;28;20352;-77
2022/10/23 15:35:50;;;;;;;;;;;22.10;99.90;;;;;;4998927;28;19930;-78
2022/10/23 15:38:17;;;;;;;;;;;22.10;99.90;;;;;;5002679;28;19968;-79
2022/10/23 15:40:45;;;;;;;;;;;22.10;99.90;;;;;;5001538;28;19926;-78
2022/10/23 15:43:11;;;;;;;;;;;22.10;99.90;;;;;;5001640;28;20359;-78
2022/10/23 15:45:38;;;;;;;;;;;22.10;99.90;;;;;;4999140;28;19932;-77
2022/10/23 15:48:07;;;;;;;;;;;22.10;99.90;;;;;;4998651;28;19969;-80
2022/10/23 15:50:34;;;;;;;;;;;22.10;99.90;;;;;;4998243;28;19979;-77
2022/10/23 15:53:01;;;;;;;;;;;22.10;99.90;;;;;;4997579;28;20020;-77
2022/10/23 15:55:28;;;;;;;;;;;22.10;99.90;;;;;;4997126;28;20425;-77
2022/10/23 15:57:57;;;;;;;;;;;22.10;99.90;;;;;;4997826;28;20020;-77
2022/10/23 16:00:24;;;;;;;;;;;22.10;99.90;;;;;;4997237;28;19977;-77
2022/10/23 16:02:51;;;;;;;;;;;22.10;99.90;;;;;;4997695;28;19976;-77
2022/10/23 16:05:19;;;;;;;;;;;22.10;99.90;;;;;;4998366;28;19934;-77
2022/10/23 16:07:46;;;;;;;;;;;22.10;99.90;;;;;;4997632;28;20009;-77
2022/10/23 16:10:13;;;;;;;;;;;22.10;99.90;;;;;;4997009;28;20376;-77
2022/10/23 16:12:39;;;;;;;;;;;22.10;99.90;;;;;;4997207;28;19973;-77
2022/10/23 16:15:07;;;;;;;;;;;22.10;99.90;;;;;;4997365;28;20009;-77
2022/10/23 16:17:34;;;;;;;;;;;22.10;99.90;;;;;;4997196;28;19933;-77
2022/10/23 16:20:01;;;;;;;;;;;22.10;99.90;;;;;;4997223;28;20008;-77
2022/10/23 16:22:29;;;;;;;;;;;22.10;99.90;;;;;;4996932;28;20024;-77
2022/10/23 16:24:56;;;;;;;;;;;22.00;99.90;;;;;;4997044;28;20024;-77
2022/10/23 16:27:22;;;;;;;;;;;22.00;99.90;;;;;;4998799;28;20021;-77
2022/10/23 16:29:49;;;;;;;;;;;22.00;99.90;;;;;;4997416;28;20449;-75
2022/10/23 16:32:17;;;;;;;;;;;22.00;99.90;;;;;;4996683;28;20385;-76
2022/10/23 16:34:43;;;;;;;;;;;22.00;99.90;;;;;;4997340;28;19933;-76
2022/10/23 16:37:10;;;;;;;;;;;22.00;99.90;;;;;;4997016;28;20024;-77
2022/10/23 16:39:38;;;;;;;;;;;22.00;99.90;;;;;;4997856;28;20381;-77
2022/10/23 16:42:05;;;;;;;;;;;22.10;99.90;;;;;;4997051;28;19973;-77
2022/10/23 16:44:32;;;;;;;;;;;22.00;99.90;;;;;;4997272;28;20464;-78
2022/10/23 16:46:59;;;;;;;;;;;22.00;99.90;;;;;;4996995;28;19964;-79
2022/10/23 16:49:28;;;;;;;;;;;22.10;99.90;;;;;;4996782;28;20024;-78
2022/10/23 16:51:55;;;;;;;;;;;22.10;99.90;;;;;;4998529;28;20432;-78
2022/10/23 16:54:21;;;;;;;;;;;22.10;99.90;;;;;;4996943;28;20013;-78
2022/10/23 16:56:49;;;;;;;;;;;22.10;99.90;;;;;;4997652;28;20024;-79
2022/10/23 16:59:16;;;;;;;;;;;22.10;99.90;;;;;;4998526;28;20123;-77
2022/10/23 17:01:43;;;;;;;;;;;22.10;99.90;;;;;;4999791;28;20013;-77
2022/10/23 17:04:10;;;;;;;;;;;22.10;99.90;;;;;;4997329;28;19972;-76
2022/10/23 17:06:37;;;;;;;;;;;22.10;99.90;;;;;;4997090;28;20016;-77
2022/10/23 17:09:04;;;;;;;;;;;22.10;99.90;;;;;;4996682;28;19957;-77
2022/10/23 17:11:32;;;;;;;;;;;22.10;99.90;;;;;;4996605;28;20037;-76
2022/10/23 17:14:01;;;;;;;;;;;22.10;99.90;;;;;;4996467;28;20020;-77
2022/10/23 17:16:29;;;;;;;;;;;22.10;99.90;;;;;;4996023;28;20016;-75
2022/10/23 17:18:56;;;;;;;;;;;22.10;99.90;;;;;;4996998;28;19990;-78
2022/10/23 17:21:23;;;;;;;;;;;22.10;99.90;;;;;;4998118;28;20464;-78
2022/10/23 17:23:50;;;;;;;;;;;22.10;99.90;;;;;;4998091;28;19961;-78
2022/10/23 17:26:18;;;;;;;;;;;22.10;99.90;;;;;;4998145;28;20016;-78
2022/10/23 17:28:45;;;;;;;;;;;22.10;99.90;;;;;;4997394;28;20008;-78
2022/10/23 17:31:14;;;;;;;;;;;22.10;99.90;;;;;;4999108;28;20433;-78
2022/10/23 17:33:41;;;;;;;;;;;22.10;99.90;;;;;;4998834;28;19969;-78
2022/10/23 17:36:09;;;;;;;;;;;22.10;99.90;;;;;;4999137;28;19979;-78
2022/10/23 17:38:36;;;;;;;;;;;22.10;99.90;;;;;;4997774;28;20025;-79
2022/10/23 17:41:03;;;;;;;;;;;22.10;99.90;;;;;;4996703;28;21652;-79
2022/10/23 17:43:30;;;;;;;;;;;22.10;99.90;;;;;;4997487;28;19961;-78
2022/10/23 17:45:57;;;;;;;;;;;22.10;99.90;;;;;;4997428;28;20045;-78
2022/10/23 17:48:25;;;;;;;;;;;22.10;99.90;;;;;;4997482;28;19968;-79
2022/10/23 17:51:00;;;;;;;;;;;22.10;99.90;;;;;;4997703;28;19973;-78
2022/10/23 17:53:27;;;;;;;;;;;22.10;99.90;;;;;;4998165;28;20016;-79
2022/10/23 17:55:53;;;;;;;;;;;22.10;99.90;;;;;;4997525;28;20016;-78
2022/10/23 17:58:20;;;;;;;;;;;22.20;99.90;;;;;;4997849;28;20021;-78
2022/10/23 18:00:47;;;;;;;;;;;22.10;99.90;;;;;;4997918;28;19972;-79
2022/10/23 18:03:13;;;;;;;;;;;22.10;99.90;;;;;;4997129;28;19979;-78
2022/10/23 18:05:41;;;;;;;;;;;22.10;99.90;;;;;;4996910;28;19926;-78
2022/10/23 18:08:08;;;;;;;;;;;22.10;99.90;;;;;;4997197;28;20012;-78
2022/10/23 18:10:35;;;;;;;;;;;22.10;99.90;;;;;;4996079;28;20024;-79
2022/10/23 18:13:02;;;;;;;;;;;22.10;99.90;;;;;;4995322;28;20028;-77
2022/10/23 18:15:28;;;;;;;;;;;22.10;99.90;;;;;;4995340;28;19932;-76
2022/10/23 18:17:55;;;;;;;;;;;22.10;99.90;;;;;;4994990;28;19968;-77
2022/10/23 18:20:22;;;;;;;;;;;22.10;99.90;;;;;;4994897;28;20029;-77
2022/10/23 18:22:50;;;;;;;;;;;22.10;99.90;;;;;;4994853;28;20017;-77
2022/10/23 18:25:16;;;;;;;;;;;22.10;99.90;;;;;;4994790;28;20020;-77
2022/10/23 18:27:43;;;;;;;;;;;22.10;99.90;;;;;;4994466;28;19932;-77
2022/10/23 18:30:10;;;;;;;;;;;22.10;99.90;;;;;;4994504;28;19968;-77
2022/10/23 18:32:37;;;;;;;;;;;22.10;99.90;;;;;;4994782;28;19932;-77
2022/10/23 18:35:04;;;;;;;;;;;22.10;99.90;;;;;;4994753;28;19965;-77
2022/10/23 18:37:31;;;;;;;;;;;22.10;99.90;;;;;;4995381;28;20013;-78
2022/10/23 18:39:59;;;;;;;;;;;22.10;99.90;;;;;;4996287;28;20341;-78
2022/10/23 18:42:26;;;;;;;;;;;22.10;99.90;;;;;;4997600;28;20016;-78
2022/10/23 18:44:52;;;;;;;;;;;22.10;99.90;;;;;;4998080;28;20020;-78
2022/10/23 18:47:19;;;;;;;;;;;22.10;99.90;;;;;;4997906;28;20024;-78
2022/10/23 18:49:45;;;;;;;;;;;22.10;99.90;;;;;;4998349;28;20012;-78
2022/10/23 18:52:12;;;;;;;;;;;22.10;99.90;;;;;;4997557;28;19968;-78
2022/10/23 18:54:39;;;;;;;;;;;22.00;99.90;;;;;;4998506;28;19989;-78
2022/10/23 18:57:07;;;;;;;;;;;22.00;99.90;;;;;;5002231;28;19953;-78
2022/10/23 18:59:33;;;;;;;;;;;22.00;99.90;;;;;;5002245;28;19998;-78
2022/10/23 19:02:00;;;;;;;;;;;22.00;99.90;;;;;;5001239;28;19961;-78
2022/10/23 19:04:27;;;;;;;;;;;22.00;99.90;;;;;;5001967;28;20020;-78
2022/10/23 19:06:53;;;;;;;;;;;22.00;99.90;;;;;;5000718;28;19968;-77
2022/10/23 19:09:20;;;;;;;;;;;22.00;99.90;;;;;;4998422;28;20020;-77
2022/10/23 19:11:47;;;;;;;;;;;22.00;99.90;;;;;;4998653;28;20020;-78
2022/10/23 19:14:15;;;;;;;;;;;22.00;99.90;;;;;;4999700;28;20368;-78
2022/10/23 19:16:44;;;;;;;;;;;22.00;99.90;;;;;;4998987;28;19926;-76
2022/10/23 19:19:12;;;;;;;;;;;22.00;99.90;;;;;;4998192;28;20034;-75
2022/10/23 19:21:39;;;;;;;;;;;22.00;99.90;;;;;;4997826;28;20020;-75
2022/10/23 19:24:08;;;;;;;;;;;22.10;99.90;;;;;;4998033;28;19926;-75
2022/10/23 19:26:35;;;;;;;;;;;22.10;99.90;;;;;;4997981;28;19933;-75
2022/10/23 19:29:02;;;;;;;;;;;22.10;99.90;;;;;;4997741;28;20345;-75
2022/10/23 19:31:30;;;;;;;;;;;22.10;99.90;;;;;;4997976;28;20017;-75
2022/10/23 19:33:57;;;;;;;;;;;22.10;99.90;;;;;;4997952;28;20016;-75
2022/10/23 19:36:23;;;;;;;;;;;22.10;99.90;;;;;;4998152;28;20016;-75
2022/10/23 19:38:50;;;;;;;;;;;22.10;99.90;;;;;;4997807;28;19926;-75
2022/10/23 19:41:17;;;;;;;;;;;22.10;99.90;;;;;;4997742;28;19926;-75
2022/10/23 19:43:44;;;;;;;;;;;22.10;99.90;;;;;;4997767;28;19976;-75
2022/10/23 19:46:11;;;;;;;;;;;22.10;99.90;;;;;;4997521;28;20024;-75
2022/10/23 19:48:42;;;;;;;;;;;22.10;99.90;;;;;;4997627;28;19929;-75